sensor_id;sensor_type;location;lat;lon;timestamp;P1;durP1;ratioP1;P2;durP2;ratioP2
29500;SDS011;16450;50.288;10.966;2022-08-01T00:01:59;4.60;;;4.03;;
29500;SDS011;16450;50.288;10.966;2022-08-01T00:05:00;4.17;;;3.73;;
29500;SDS011;16450;50.288;10.966;2022-08-01T00:08:01;4.40;;;4.00;;
29500;SDS011;16450;50.288;10.966;2022-08-01T00:11:02;4.00;;;3.57;;
29500;SDS011;16450;50.288;10.966;2022-08-01T00:14:02;4.10;;;3.70;;
29500;SDS011;16450;50.288;10.966;2022-08-01T00:17:03;3.67;;;3.37;;
29500;SDS011;16450;50.288;10.966;2022-08-01T00:20:04;5.63;;;3.70;;
29500;SDS011;16450;50.288;10.966;2022-08-01T00:23:06;5.73;;;3.70;;
29500;SDS011;16450;50.288;10.966;2022-08-01T00:26:07;4.50;;;3.90;;
29500;SDS011;16450;50.288;10.966;2022-08-01T00:29:07;5.53;;;3.97;;
29500;SDS011;16450;50.288;10.966;2022-08-01T00:32:08;4.80;;;3.67;;
29500;SDS011;16450;50.288;10.966;2022-08-01T00:35:09;4.03;;;3.70;;
29500;SDS011;16450;50.288;10.966;2022-08-01T00:38:10;4.37;;;3.97;;
29500;SDS011;16450;50.288;10.966;2022-08-01T00:41:11;5.13;;;3.80;;
29500;SDS011;16450;50.288;10.966;2022-08-01T00:44:11;4.30;;;3.90;;
29500;SDS011;16450;50.288;10.966;2022-08-01T00:47:12;5.23;;;3.93;;
29500;SDS011;16450;50.288;10.966;2022-08-01T00:50:12;4.63;;;3.90;;
29500;SDS011;16450;50.288;10.966;2022-08-01T00:53:13;4.13;;;3.73;;
29500;SDS011;16450;50.288;10.966;2022-08-01T00:56:14;6.47;;;4.00;;
29500;SDS011;16450;50.288;10.966;2022-08-01T00:59:15;5.20;;;4.00;;
29500;SDS011;16450;50.288;10.966;2022-08-01T01:02:17;4.43;;;4.03;;
29500;SDS011;16450;50.288;10.966;2022-08-01T01:05:18;4.03;;;3.60;;
29500;SDS011;16450;50.288;10.966;2022-08-01T01:08:22;5.33;;;4.07;;
29500;SDS011;16450;50.288;10.966;2022-08-01T01:11:31;4.30;;;3.90;;
29500;SDS011;16450;50.288;10.966;2022-08-01T01:14:56;5.23;;;4.07;;
29500;SDS011;16450;50.288;10.966;2022-08-01T01:21:35;4.30;;;3.90;;
29500;SDS011;16450;50.288;10.966;2022-08-01T01:31:19;4.20;;;3.80;;
29500;SDS011;16450;50.288;10.966;2022-08-01T01:34:24;5.97;;;4.23;;
29500;SDS011;16450;50.288;10.966;2022-08-01T01:37:27;4.70;;;4.30;;
29500;SDS011;16450;50.288;10.966;2022-08-01T01:40:35;4.10;;;3.70;;
29500;SDS011;16450;50.288;10.966;2022-08-01T01:43:38;4.40;;;4.00;;
29500;SDS011;16450;50.288;10.966;2022-08-01T01:46:40;4.50;;;4.10;;
29500;SDS011;16450;50.288;10.966;2022-08-01T01:49:43;8.60;;;4.80;;
29500;SDS011;16450;50.288;10.966;2022-08-01T01:52:45;5.93;;;4.87;;
29500;SDS011;16450;50.288;10.966;2022-08-01T01:55:48;4.93;;;4.20;;
29500;SDS011;16450;50.288;10.966;2022-08-01T01:58:54;8.47;;;4.70;;
29500;SDS011;16450;50.288;10.966;2022-08-01T02:01:58;4.90;;;4.40;;
29500;SDS011;16450;50.288;10.966;2022-08-01T02:05:02;5.13;;;4.60;;
29500;SDS011;16450;50.288;10.966;2022-08-01T02:08:05;4.80;;;4.30;;
29500;SDS011;16450;50.288;10.966;2022-08-01T02:11:07;4.80;;;4.40;;
29500;SDS011;16450;50.288;10.966;2022-08-01T02:14:19;5.57;;;4.20;;
29500;SDS011;16450;50.288;10.966;2022-08-01T02:17:22;4.57;;;4.13;;
29500;SDS011;16450;50.288;10.966;2022-08-01T02:20:25;5.10;;;4.60;;
29500;SDS011;16450;50.288;10.966;2022-08-01T02:23:31;6.77;;;4.27;;
29500;SDS011;16450;50.288;10.966;2022-08-01T02:26:33;5.43;;;4.50;;
29500;SDS011;16450;50.288;10.966;2022-08-01T02:32:51;5.30;;;4.50;;
29500;SDS011;16450;50.288;10.966;2022-08-01T02:35:57;5.13;;;4.37;;
29500;SDS011;16450;50.288;10.966;2022-08-01T02:39:04;4.30;;;3.90;;
29500;SDS011;16450;50.288;10.966;2022-08-01T02:42:08;5.00;;;4.07;;
29500;SDS011;16450;50.288;10.966;2022-08-01T02:45:13;4.33;;;3.93;;
29500;SDS011;16450;50.288;10.966;2022-08-01T02:48:15;4.23;;;3.83;;
29500;SDS011;16450;50.288;10.966;2022-08-01T02:51:18;6.37;;;4.10;;
29500;SDS011;16450;50.288;10.966;2022-08-01T02:54:21;5.27;;;4.33;;
29500;SDS011;16450;50.288;10.966;2022-08-01T02:57:23;4.93;;;4.00;;
29500;SDS011;16450;50.288;10.966;2022-08-01T03:00:26;4.40;;;3.77;;
29500;SDS011;16450;50.288;10.966;2022-08-01T03:03:30;5.10;;;4.30;;
29500;SDS011;16450;50.288;10.966;2022-08-01T03:06:32;4.67;;;4.10;;
29500;SDS011;16450;50.288;10.966;2022-08-01T03:09:38;4.63;;;4.17;;
29500;SDS011;16450;50.288;10.966;2022-08-01T03:12:42;4.50;;;4.10;;
29500;SDS011;16450;50.288;10.966;2022-08-01T03:15:44;4.40;;;4.00;;
29500;SDS011;16450;50.288;10.966;2022-08-01T03:18:46;5.20;;;4.20;;
29500;SDS011;16450;50.288;10.966;2022-08-01T03:21:48;6.53;;;4.10;;
29500;SDS011;16450;50.288;10.966;2022-08-01T03:24:51;5.77;;;3.70;;
29500;SDS011;16450;50.288;10.966;2022-08-01T03:27:56;4.27;;;3.87;;
29500;SDS011;16450;50.288;10.966;2022-08-01T03:31:01;4.30;;;3.90;;
29500;SDS011;16450;50.288;10.966;2022-08-01T03:34:02;4.20;;;3.63;;
29500;SDS011;16450;50.288;10.966;2022-08-01T03:40:08;4.50;;;4.10;;
29500;SDS011;16450;50.288;10.966;2022-08-01T03:43:20;6.03;;;4.47;;
29500;SDS011;16450;50.288;10.966;2022-08-01T03:46:29;4.63;;;3.90;;
29500;SDS011;16450;50.288;10.966;2022-08-01T03:49:44;6.20;;;4.03;;
29500;SDS011;16450;50.288;10.966;2022-08-01T03:52:47;4.87;;;4.10;;
29500;SDS011;16450;50.288;10.966;2022-08-01T03:55:50;5.07;;;4.10;;
29500;SDS011;16450;50.288;10.966;2022-08-01T03:58:52;4.90;;;4.40;;
29500;SDS011;16450;50.288;10.966;2022-08-01T04:01:54;4.33;;;3.93;;
29500;SDS011;16450;50.288;10.966;2022-08-01T04:04:56;4.73;;;4.13;;
29500;SDS011;16450;50.288;10.966;2022-08-01T04:07:57;5.73;;;3.90;;
29500;SDS011;16450;50.288;10.966;2022-08-01T04:10:59;4.43;;;4.00;;
29500;SDS011;16450;50.288;10.966;2022-08-01T04:14:00;5.20;;;4.53;;
29500;SDS011;16450;50.288;10.966;2022-08-01T04:17:00;4.43;;;4.03;;
29500;SDS011;16450;50.288;10.966;2022-08-01T04:20:01;6.13;;;4.13;;
29500;SDS011;16450;50.288;10.966;2022-08-01T04:23:02;4.50;;;4.00;;
29500;SDS011;16450;50.288;10.966;2022-08-01T04:26:03;5.13;;;4.30;;
29500;SDS011;16450;50.288;10.966;2022-08-01T04:29:05;4.67;;;3.90;;
29500;SDS011;16450;50.288;10.966;2022-08-01T04:32:07;4.97;;;3.93;;
29500;SDS011;16450;50.288;10.966;2022-08-01T04:35:11;5.07;;;4.10;;
29500;SDS011;16450;50.288;10.966;2022-08-01T04:38:20;4.87;;;4.20;;
29500;SDS011;16450;50.288;10.966;2022-08-01T04:41:23;4.63;;;3.70;;
29500;SDS011;16450;50.288;10.966;2022-08-01T04:44:24;5.60;;;4.10;;
29500;SDS011;16450;50.288;10.966;2022-08-01T04:47:27;7.13;;;4.60;;
29500;SDS011;16450;50.288;10.966;2022-08-01T04:50:29;5.40;;;4.13;;
29500;SDS011;16450;50.288;10.966;2022-08-01T04:53:31;6.60;;;4.30;;
29500;SDS011;16450;50.288;10.966;2022-08-01T04:56:32;5.37;;;4.10;;
29500;SDS011;16450;50.288;10.966;2022-08-01T04:59:34;4.40;;;4.00;;
29500;SDS011;16450;50.288;10.966;2022-08-01T05:02:41;6.00;;;4.70;;
29500;SDS011;16450;50.288;10.966;2022-08-01T05:05:41;4.27;;;3.83;;
29500;SDS011;16450;50.288;10.966;2022-08-01T05:08:42;4.97;;;4.17;;
29500;SDS011;16450;50.288;10.966;2022-08-01T05:11:43;6.23;;;4.63;;
29500;SDS011;16450;50.288;10.966;2022-08-01T05:14:44;5.23;;;4.57;;
29500;SDS011;16450;50.288;10.966;2022-08-01T05:17:46;4.50;;;4.07;;
29500;SDS011;16450;50.288;10.966;2022-08-01T05:20:47;5.10;;;4.10;;
29500;SDS011;16450;50.288;10.966;2022-08-01T05:23:47;4.40;;;4.00;;
29500;SDS011;16450;50.288;10.966;2022-08-01T05:26:49;6.03;;;4.30;;
29500;SDS011;16450;50.288;10.966;2022-08-01T05:29:49;4.50;;;3.80;;
29500;SDS011;16450;50.288;10.966;2022-08-01T05:32:50;4.60;;;4.10;;
29500;SDS011;16450;50.288;10.966;2022-08-01T05:35:50;8.57;;;4.40;;
29500;SDS011;16450;50.288;10.966;2022-08-01T05:38:51;5.60;;;4.40;;
29500;SDS011;16450;50.288;10.966;2022-08-01T05:41:52;6.57;;;4.37;;
29500;SDS011;16450;50.288;10.966;2022-08-01T05:44:52;5.43;;;3.85;;
29500;SDS011;16450;50.288;10.966;2022-08-01T05:47:53;4.75;;;4.25;;
29500;SDS011;16450;50.288;10.966;2022-08-01T05:50:54;9.18;;;4.50;;
29500;SDS011;16450;50.288;10.966;2022-08-01T05:53:54;5.18;;;4.13;;
29500;SDS011;16450;50.288;10.966;2022-08-01T05:56:55;6.10;;;4.10;;
29500;SDS011;16450;50.288;10.966;2022-08-01T05:59:59;4.78;;;3.65;;
29500;SDS011;16450;50.288;10.966;2022-08-01T06:03:00;4.05;;;3.40;;
29500;SDS011;16450;50.288;10.966;2022-08-01T06:06:00;5.18;;;3.58;;
29500;SDS011;16450;50.288;10.966;2022-08-01T06:09:01;5.35;;;3.33;;
29500;SDS011;16450;50.288;10.966;2022-08-01T06:12:02;4.47;;;3.63;;
29500;SDS011;16450;50.288;10.966;2022-08-01T06:15:04;4.90;;;3.80;;
29500;SDS011;16450;50.288;10.966;2022-08-01T06:18:05;3.97;;;3.40;;
29500;SDS011;16450;50.288;10.966;2022-08-01T06:21:05;4.65;;;3.38;;
29500;SDS011;16450;50.288;10.966;2022-08-01T06:24:06;3.90;;;3.50;;
29500;SDS011;16450;50.288;10.966;2022-08-01T06:27:08;4.05;;;3.40;;
29500;SDS011;16450;50.288;10.966;2022-08-01T06:30:08;5.60;;;3.65;;
29500;SDS011;16450;50.288;10.966;2022-08-01T06:33:10;6.15;;;3.45;;
29500;SDS011;16450;50.288;10.966;2022-08-01T06:36:10;3.65;;;3.35;;
29500;SDS011;16450;50.288;10.966;2022-08-01T06:39:11;4.15;;;3.00;;
29500;SDS011;16450;50.288;10.966;2022-08-01T06:42:11;3.28;;;2.70;;
29500;SDS011;16450;50.288;10.966;2022-08-01T06:45:14;6.93;;;3.35;;
29500;SDS011;16450;50.288;10.966;2022-08-01T06:48:15;3.47;;;2.92;;
29500;SDS011;16450;50.288;10.966;2022-08-01T06:51:16;3.80;;;3.28;;
29500;SDS011;16450;50.288;10.966;2022-08-01T06:54:19;6.38;;;3.55;;
29500;SDS011;16450;50.288;10.966;2022-08-01T06:57:21;3.72;;;3.10;;
29500;SDS011;16450;50.288;10.966;2022-08-01T07:00:22;5.88;;;3.22;;
29500;SDS011;16450;50.288;10.966;2022-08-01T07:03:24;5.68;;;3.67;;
29500;SDS011;16450;50.288;10.966;2022-08-01T07:06:25;3.45;;;3.15;;
29500;SDS011;16450;50.288;10.966;2022-08-01T07:09:26;3.67;;;2.97;;
29500;SDS011;16450;50.288;10.966;2022-08-01T07:12:27;3.33;;;3.03;;
29500;SDS011;16450;50.288;10.966;2022-08-01T07:15:27;3.20;;;2.80;;
29500;SDS011;16450;50.288;10.966;2022-08-01T07:18:28;3.80;;;3.20;;
29500;SDS011;16450;50.288;10.966;2022-08-01T07:21:28;3.15;;;2.78;;
29500;SDS011;16450;50.288;10.966;2022-08-01T07:24:29;3.10;;;2.42;;
29500;SDS011;16450;50.288;10.966;2022-08-01T07:27:30;3.10;;;2.80;;
29500;SDS011;16450;50.288;10.966;2022-08-01T07:30:31;3.60;;;2.78;;
29500;SDS011;16450;50.288;10.966;2022-08-01T07:33:31;5.10;;;2.80;;
29500;SDS011;16450;50.288;10.966;2022-08-01T07:36:32;3.25;;;2.50;;
29500;SDS011;16450;50.288;10.966;2022-08-01T07:39:33;4.22;;;2.50;;
29500;SDS011;16450;50.288;10.966;2022-08-01T07:42:33;2.55;;;2.35;;
29500;SDS011;16450;50.288;10.966;2022-08-01T07:45:34;2.63;;;2.33;;
29500;SDS011;16450;50.288;10.966;2022-08-01T07:48:34;4.80;;;2.03;;
29500;SDS011;16450;50.288;10.966;2022-08-01T07:51:35;2.63;;;1.85;;
29500;SDS011;16450;50.288;10.966;2022-08-01T07:54:36;2.58;;;2.08;;
29500;SDS011;16450;50.288;10.966;2022-08-01T07:57:37;2.40;;;2.20;;
29500;SDS011;16450;50.288;10.966;2022-08-01T08:00:38;2.55;;;2.35;;
29500;SDS011;16450;50.288;10.966;2022-08-01T08:03:38;2.60;;;2.33;;
29500;SDS011;16450;50.288;10.966;2022-08-01T08:06:39;2.53;;;2.28;;
29500;SDS011;16450;50.288;10.966;2022-08-01T08:09:41;2.90;;;2.17;;
29500;SDS011;16450;50.288;10.966;2022-08-01T08:12:41;2.28;;;2.00;;
29500;SDS011;16450;50.288;10.966;2022-08-01T08:15:42;2.40;;;2.20;;
29500;SDS011;16450;50.288;10.966;2022-08-01T08:18:43;3.15;;;2.30;;
29500;SDS011;16450;50.288;10.966;2022-08-01T08:21:44;2.17;;;1.98;;
29500;SDS011;16450;50.288;10.966;2022-08-01T08:24:44;2.28;;;2.08;;
29500;SDS011;16450;50.288;10.966;2022-08-01T08:27:45;2.22;;;1.92;;
29500;SDS011;16450;50.288;10.966;2022-08-01T08:30:46;2.60;;;2.22;;
29500;SDS011;16450;50.288;10.966;2022-08-01T08:33:47;2.55;;;2.15;;
29500;SDS011;16450;50.288;10.966;2022-08-01T08:36:48;2.08;;;1.88;;
29500;SDS011;16450;50.288;10.966;2022-08-01T08:39:49;2.75;;;1.88;;
29500;SDS011;16450;50.288;10.966;2022-08-01T08:42:49;2.25;;;1.50;;
29500;SDS011;16450;50.288;10.966;2022-08-01T08:45:50;1.50;;;1.40;;
29500;SDS011;16450;50.288;10.966;2022-08-01T08:48:52;2.20;;;1.30;;
29500;SDS011;16450;50.288;10.966;2022-08-01T08:51:53;1.30;;;1.20;;
29500;SDS011;16450;50.288;10.966;2022-08-01T08:54:59;2.08;;;1.67;;
29500;SDS011;16450;50.288;10.966;2022-08-01T08:58:00;5.28;;;2.00;;
29500;SDS011;16450;50.288;10.966;2022-08-01T09:01:05;6.47;;;2.10;;
29500;SDS011;16450;50.288;10.966;2022-08-01T09:04:08;4.30;;;2.55;;
29500;SDS011;16450;50.288;10.966;2022-08-01T09:07:09;4.68;;;2.10;;
29500;SDS011;16450;50.288;10.966;2022-08-01T09:10:11;3.40;;;2.20;;
29500;SDS011;16450;50.288;10.966;2022-08-01T09:13:13;4.10;;;1.98;;
29500;SDS011;16450;50.288;10.966;2022-08-01T09:16:15;2.90;;;2.15;;
29500;SDS011;16450;50.288;10.966;2022-08-01T09:19:18;3.13;;;2.22;;
29500;SDS011;16450;50.288;10.966;2022-08-01T09:22:20;3.97;;;2.95;;
29500;SDS011;16450;50.288;10.966;2022-08-01T09:25:23;3.08;;;2.17;;
29500;SDS011;16450;50.288;10.966;2022-08-01T09:28:30;4.38;;;2.40;;
29500;SDS011;16450;50.288;10.966;2022-08-01T09:31:39;2.67;;;2.00;;
29500;SDS011;16450;50.288;10.966;2022-08-01T09:34:42;3.42;;;2.10;;
29500;SDS011;16450;50.288;10.966;2022-08-01T09:37:42;3.35;;;2.10;;
29500;SDS011;16450;50.288;10.966;2022-08-01T09:40:43;2.22;;;2.03;;
29500;SDS011;16450;50.288;10.966;2022-08-01T09:43:49;2.33;;;2.13;;
29500;SDS011;16450;50.288;10.966;2022-08-01T09:46:51;4.38;;;2.03;;
29500;SDS011;16450;50.288;10.966;2022-08-01T09:49:56;2.55;;;2.00;;
29500;SDS011;16450;50.288;10.966;2022-08-01T09:52:57;2.40;;;2.15;;
29500;SDS011;16450;50.288;10.966;2022-08-01T09:56:10;1.67;;;1.58;;
29500;SDS011;16450;50.288;10.966;2022-08-01T09:59:11;2.95;;;2.10;;
29500;SDS011;16450;50.288;10.966;2022-08-01T10:02:14;2.03;;;1.80;;
29500;SDS011;16450;50.288;10.966;2022-08-01T10:05:30;2.22;;;2.03;;
29500;SDS011;16450;50.288;10.966;2022-08-01T10:08:45;2.00;;;1.77;;
29500;SDS011;16450;50.288;10.966;2022-08-01T10:11:46;2.30;;;2.05;;
29500;SDS011;16450;50.288;10.966;2022-08-01T10:14:49;2.55;;;1.70;;
29500;SDS011;16450;50.288;10.966;2022-08-01T10:17:53;2.38;;;2.00;;
29500;SDS011;16450;50.288;10.966;2022-08-01T10:20:55;2.20;;;2.00;;
29500;SDS011;16450;50.288;10.966;2022-08-01T10:23:57;2.22;;;2.10;;
29500;SDS011;16450;50.288;10.966;2022-08-01T10:27:03;2.30;;;2.10;;
29500;SDS011;16450;50.288;10.966;2022-08-01T10:30:06;2.30;;;2.03;;
29500;SDS011;16450;50.288;10.966;2022-08-01T10:33:08;2.67;;;1.98;;
29500;SDS011;16450;50.288;10.966;2022-08-01T10:36:10;2.25;;;2.05;;
29500;SDS011;16450;50.288;10.966;2022-08-01T10:39:11;2.45;;;1.95;;
29500;SDS011;16450;50.288;10.966;2022-08-01T10:42:12;1.85;;;1.75;;
29500;SDS011;16450;50.288;10.966;2022-08-01T10:45:14;1.67;;;1.58;;
29500;SDS011;16450;50.288;10.966;2022-08-01T10:51:38;1.20;;;1.10;;
29500;SDS011;16450;50.288;10.966;2022-08-01T10:54:40;1.17;;;1.02;;
29500;SDS011;16450;50.288;10.966;2022-08-01T10:57:44;1.15;;;1.08;;
29500;SDS011;16450;50.288;10.966;2022-08-01T11:00:46;1.17;;;1.10;;
29500;SDS011;16450;50.288;10.966;2022-08-01T11:10:16;1.85;;;1.52;;
29500;SDS011;16450;50.288;10.966;2022-08-01T11:14:22;1.00;;;1.00;;
29500;SDS011;16450;50.288;10.966;2022-08-01T11:20:36;1.10;;;1.10;;
29500;SDS011;16450;50.288;10.966;2022-08-01T11:23:47;1.48;;;1.38;;
29500;SDS011;16450;50.288;10.966;2022-08-01T11:30:22;1.70;;;1.60;;
29500;SDS011;16450;50.288;10.966;2022-08-01T11:36:42;2.97;;;1.50;;
29500;SDS011;16450;50.288;10.966;2022-08-01T11:39:42;1.55;;;1.45;;
29500;SDS011;16450;50.288;10.966;2022-08-01T11:46:13;2.95;;;1.80;;
29500;SDS011;16450;50.288;10.966;2022-08-01T11:52:45;1.70;;;1.55;;
29500;SDS011;16450;50.288;10.966;2022-08-01T11:55:46;1.42;;;1.33;;
29500;SDS011;16450;50.288;10.966;2022-08-01T11:58:48;1.58;;;1.48;;
29500;SDS011;16450;50.288;10.966;2022-08-01T12:01:50;3.15;;;1.70;;
29500;SDS011;16450;50.288;10.966;2022-08-01T12:04:52;1.65;;;1.55;;
29500;SDS011;16450;50.288;10.966;2022-08-01T12:07:57;2.25;;;2.05;;
29500;SDS011;16450;50.288;10.966;2022-08-01T12:10:58;2.00;;;1.90;;
29500;SDS011;16450;50.288;10.966;2022-08-01T12:14:01;2.58;;;1.90;;
29500;SDS011;16450;50.288;10.966;2022-08-01T12:17:02;1.85;;;1.75;;
29500;SDS011;16450;50.288;10.966;2022-08-01T12:20:03;2.00;;;1.90;;
29500;SDS011;16450;50.288;10.966;2022-08-01T12:23:07;2.50;;;1.75;;
29500;SDS011;16450;50.288;10.966;2022-08-01T12:26:09;4.05;;;1.95;;
29500;SDS011;16450;50.288;10.966;2022-08-01T12:29:10;2.45;;;2.25;;
29500;SDS011;16450;50.288;10.966;2022-08-01T12:32:31;2.05;;;1.70;;
29500;SDS011;16450;50.288;10.966;2022-08-01T12:35:35;2.13;;;1.98;;
29500;SDS011;16450;50.288;10.966;2022-08-01T12:38:37;2.10;;;2.00;;
29500;SDS011;16450;50.288;10.966;2022-08-01T12:41:38;1.63;;;1.52;;
29500;SDS011;16450;50.288;10.966;2022-08-01T12:44:44;2.75;;;1.77;;
29500;SDS011;16450;50.288;10.966;2022-08-01T12:47:47;2.03;;;1.67;;
29500;SDS011;16450;50.288;10.966;2022-08-01T12:50:48;3.00;;;2.03;;
29500;SDS011;16450;50.288;10.966;2022-08-01T12:53:52;1.90;;;1.70;;
29500;SDS011;16450;50.288;10.966;2022-08-01T12:56:53;4.40;;;2.10;;
29500;SDS011;16450;50.288;10.966;2022-08-01T13:00:04;2.33;;;1.88;;
29500;SDS011;16450;50.288;10.966;2022-08-01T13:03:14;1.85;;;1.75;;
29500;SDS011;16450;50.288;10.966;2022-08-01T13:06:16;2.30;;;1.85;;
29500;SDS011;16450;50.288;10.966;2022-08-01T13:09:16;3.15;;;1.90;;
29500;SDS011;16450;50.288;10.966;2022-08-01T13:12:17;1.80;;;1.70;;
29500;SDS011;16450;50.288;10.966;2022-08-01T13:15:25;2.15;;;1.95;;
29500;SDS011;16450;50.288;10.966;2022-08-01T13:18:31;2.22;;;2.00;;
29500;SDS011;16450;50.288;10.966;2022-08-01T13:21:33;1.60;;;1.50;;
29500;SDS011;16450;50.288;10.966;2022-08-01T13:24:34;1.98;;;1.75;;
29500;SDS011;16450;50.288;10.966;2022-08-01T13:27:35;2.22;;;1.60;;
29500;SDS011;16450;50.288;10.966;2022-08-01T13:30:35;1.80;;;1.70;;
29500;SDS011;16450;50.288;10.966;2022-08-01T13:33:40;4.28;;;1.90;;
29500;SDS011;16450;50.288;10.966;2022-08-01T13:36:48;2.08;;;1.90;;
29500;SDS011;16450;50.288;10.966;2022-08-01T13:39:49;2.45;;;1.90;;
29500;SDS011;16450;50.288;10.966;2022-08-01T13:42:49;2.67;;;2.10;;
29500;SDS011;16450;50.288;10.966;2022-08-01T13:45:50;2.65;;;2.00;;
29500;SDS011;16450;50.288;10.966;2022-08-01T13:48:50;2.28;;;1.92;;
29500;SDS011;16450;50.288;10.966;2022-08-01T13:51:51;3.20;;;1.77;;
29500;SDS011;16450;50.288;10.966;2022-08-01T13:54:52;4.53;;;1.95;;
29500;SDS011;16450;50.288;10.966;2022-08-01T13:57:52;1.88;;;1.77;;
29500;SDS011;16450;50.288;10.966;2022-08-01T14:00:53;2.70;;;2.50;;
29500;SDS011;16450;50.288;10.966;2022-08-01T14:03:54;2.60;;;2.40;;
29500;SDS011;16450;50.288;10.966;2022-08-01T14:06:55;2.42;;;2.22;;
29500;SDS011;16450;50.288;10.966;2022-08-01T14:09:55;2.50;;;2.30;;
29500;SDS011;16450;50.288;10.966;2022-08-01T14:12:56;2.60;;;2.40;;
29500;SDS011;16450;50.288;10.966;2022-08-01T14:15:58;2.72;;;2.50;;
29500;SDS011;16450;50.288;10.966;2022-08-01T14:18:59;2.55;;;2.35;;
29500;SDS011;16450;50.288;10.966;2022-08-01T14:21:59;4.07;;;2.40;;
29500;SDS011;16450;50.288;10.966;2022-08-01T14:25:00;2.50;;;2.10;;
29500;SDS011;16450;50.288;10.966;2022-08-01T14:28:00;2.70;;;2.50;;
29500;SDS011;16450;50.288;10.966;2022-08-01T14:31:01;3.08;;;2.40;;
29500;SDS011;16450;50.288;10.966;2022-08-01T14:34:02;3.10;;;2.42;;
29500;SDS011;16450;50.288;10.966;2022-08-01T14:37:02;3.55;;;2.70;;
29500;SDS011;16450;50.288;10.966;2022-08-01T14:40:03;2.92;;;2.60;;
29500;SDS011;16450;50.288;10.966;2022-08-01T14:43:09;3.83;;;2.47;;
29500;SDS011;16450;50.288;10.966;2022-08-01T14:46:09;3.35;;;2.63;;
29500;SDS011;16450;50.288;10.966;2022-08-01T14:49:12;2.60;;;2.40;;
29500;SDS011;16450;50.288;10.966;2022-08-01T14:52:12;3.03;;;2.70;;
29500;SDS011;16450;50.288;10.966;2022-08-01T14:55:13;3.83;;;2.90;;
29500;SDS011;16450;50.288;10.966;2022-08-01T14:58:13;3.90;;;2.83;;
29500;SDS011;16450;50.288;10.966;2022-08-01T15:01:14;3.03;;;2.72;;
29500;SDS011;16450;50.288;10.966;2022-08-01T15:04:15;4.10;;;2.85;;
29500;SDS011;16450;50.288;10.966;2022-08-01T15:07:17;3.53;;;2.83;;
29500;SDS011;16450;50.288;10.966;2022-08-01T15:10:18;3.13;;;2.58;;
29500;SDS011;16450;50.288;10.966;2022-08-01T15:13:18;2.90;;;2.60;;
29500;SDS011;16450;50.288;10.966;2022-08-01T15:16:19;2.75;;;2.55;;
29500;SDS011;16450;50.288;10.966;2022-08-01T15:19:19;2.85;;;2.50;;
29500;SDS011;16450;50.288;10.966;2022-08-01T15:22:20;3.55;;;2.75;;
29500;SDS011;16450;50.288;10.966;2022-08-01T15:25:22;2.95;;;2.63;;
29500;SDS011;16450;50.288;10.966;2022-08-01T15:28:22;4.53;;;2.70;;
29500;SDS011;16450;50.288;10.966;2022-08-01T15:31:23;2.85;;;2.47;;
29500;SDS011;16450;50.288;10.966;2022-08-01T15:34:24;3.78;;;2.70;;
29500;SDS011;16450;50.288;10.966;2022-08-01T15:37:25;2.58;;;2.38;;
29500;SDS011;16450;50.288;10.966;2022-08-01T15:40:25;3.00;;;2.70;;
29500;SDS011;16450;50.288;10.966;2022-08-01T15:43:28;2.80;;;2.50;;
29500;SDS011;16450;50.288;10.966;2022-08-01T15:46:29;3.03;;;2.67;;
29500;SDS011;16450;50.288;10.966;2022-08-01T15:49:30;2.58;;;2.38;;
29500;SDS011;16450;50.288;10.966;2022-08-01T15:52:30;3.58;;;2.65;;
29500;SDS011;16450;50.288;10.966;2022-08-01T15:55:31;3.45;;;2.55;;
29500;SDS011;16450;50.288;10.966;2022-08-01T15:58:34;2.72;;;2.53;;
29500;SDS011;16450;50.288;10.966;2022-08-01T16:01:35;3.08;;;2.65;;
29500;SDS011;16450;50.288;10.966;2022-08-01T16:04:36;2.72;;;2.42;;
29500;SDS011;16450;50.288;10.966;2022-08-01T16:07:36;3.28;;;2.67;;
29500;SDS011;16450;50.288;10.966;2022-08-01T16:10:37;4.75;;;2.80;;
29500;SDS011;16450;50.288;10.966;2022-08-01T16:13:38;3.10;;;2.80;;
29500;SDS011;16450;50.288;10.966;2022-08-01T16:16:38;3.03;;;2.72;;
29500;SDS011;16450;50.288;10.966;2022-08-01T16:19:39;3.00;;;2.70;;
29500;SDS011;16450;50.288;10.966;2022-08-01T16:22:40;3.85;;;2.67;;
29500;SDS011;16450;50.288;10.966;2022-08-01T16:25:40;3.13;;;2.70;;
29500;SDS011;16450;50.288;10.966;2022-08-01T16:28:42;2.92;;;2.60;;
29500;SDS011;16450;50.288;10.966;2022-08-01T16:31:47;3.30;;;3.00;;
29500;SDS011;16450;50.288;10.966;2022-08-01T16:34:47;3.55;;;3.05;;
29500;SDS011;16450;50.288;10.966;2022-08-01T16:37:48;2.88;;;2.53;;
29500;SDS011;16450;50.288;10.966;2022-08-01T16:40:49;3.25;;;2.95;;
29500;SDS011;16450;50.288;10.966;2022-08-01T16:43:50;3.67;;;2.72;;
29500;SDS011;16450;50.288;10.966;2022-08-01T16:46:50;3.78;;;2.67;;
29500;SDS011;16450;50.288;10.966;2022-08-01T16:49:51;2.88;;;2.63;;
29500;SDS011;16450;50.288;10.966;2022-08-01T16:52:52;3.00;;;2.70;;
29500;SDS011;16450;50.288;10.966;2022-08-01T16:55:52;3.00;;;2.70;;
29500;SDS011;16450;50.288;10.966;2022-08-01T16:58:53;3.20;;;2.90;;
29500;SDS011;16450;50.288;10.966;2022-08-01T17:01:53;3.00;;;2.75;;
29500;SDS011;16450;50.288;10.966;2022-08-01T17:04:54;4.22;;;2.85;;
29500;SDS011;16450;50.288;10.966;2022-08-01T17:07:55;3.75;;;2.80;;
29500;SDS011;16450;50.288;10.966;2022-08-01T17:10:55;2.40;;;2.20;;
29500;SDS011;16450;50.288;10.966;2022-08-01T17:13:56;2.58;;;2.38;;
29500;SDS011;16450;50.288;10.966;2022-08-01T17:16:57;2.60;;;2.40;;
29500;SDS011;16450;50.288;10.966;2022-08-01T17:19:57;3.13;;;2.72;;
29500;SDS011;16450;50.288;10.966;2022-08-01T17:22:58;3.42;;;2.50;;
29500;SDS011;16450;50.288;10.966;2022-08-01T17:25:58;3.10;;;2.80;;
29500;SDS011;16450;50.288;10.966;2022-08-01T17:28:59;3.10;;;2.80;;
29500;SDS011;16450;50.288;10.966;2022-08-01T17:31:59;2.92;;;2.60;;
29500;SDS011;16450;50.288;10.966;2022-08-01T17:35:01;3.53;;;2.80;;
29500;SDS011;16450;50.288;10.966;2022-08-01T17:38:02;3.75;;;3.20;;
29500;SDS011;16450;50.288;10.966;2022-08-01T17:41:03;3.20;;;2.85;;
29500;SDS011;16450;50.288;10.966;2022-08-01T17:44:04;2.95;;;2.65;;
29500;SDS011;16450;50.288;10.966;2022-08-01T17:47:04;3.38;;;3.08;;
29500;SDS011;16450;50.288;10.966;2022-08-01T17:50:06;3.53;;;2.63;;
29500;SDS011;16450;50.288;10.966;2022-08-01T17:53:08;3.55;;;3.00;;
29500;SDS011;16450;50.288;10.966;2022-08-01T17:56:09;3.05;;;2.75;;
29500;SDS011;16450;50.288;10.966;2022-08-01T17:59:09;4.30;;;3.53;;
29500;SDS011;16450;50.288;10.966;2022-08-01T18:02:10;3.53;;;2.97;;
29500;SDS011;16450;50.288;10.966;2022-08-01T18:05:11;3.30;;;2.90;;
29500;SDS011;16450;50.288;10.966;2022-08-01T18:08:11;3.25;;;2.95;;
29500;SDS011;16450;50.288;10.966;2022-08-01T18:11:12;3.75;;;3.00;;
29500;SDS011;16450;50.288;10.966;2022-08-01T18:14:13;3.20;;;2.80;;
29500;SDS011;16450;50.288;10.966;2022-08-01T18:17:14;3.08;;;2.78;;
29500;SDS011;16450;50.288;10.966;2022-08-01T18:20:15;3.80;;;3.20;;
29500;SDS011;16450;50.288;10.966;2022-08-01T18:23:16;3.78;;;3.03;;
29500;SDS011;16450;50.288;10.966;2022-08-01T18:26:16;4.95;;;3.35;;
29500;SDS011;16450;50.288;10.966;2022-08-01T18:29:17;3.53;;;3.20;;
29500;SDS011;16450;50.288;10.966;2022-08-01T18:32:18;3.28;;;2.90;;
29500;SDS011;16450;50.288;10.966;2022-08-01T18:35:19;3.95;;;2.80;;
29500;SDS011;16450;50.288;10.966;2022-08-01T18:38:20;4.63;;;3.35;;
29500;SDS011;16450;50.288;10.966;2022-08-01T18:41:20;3.72;;;3.33;;
29500;SDS011;16450;50.288;10.966;2022-08-01T18:44:21;3.72;;;2.75;;